createdAt,value
2017-10-27T00:08:37.486Z,50.1
2017-10-27T00:18:52.257Z,50
2017-10-27T00:29:07.577Z,47.6
2017-10-27T00:39:22.579Z,43.5
2017-10-27T00:49:38.251Z,39.2
2017-10-27T00:59:53.013Z,35.5
2017-10-27T01:10:08.630Z,35.6
2017-10-27T01:20:24.198Z,35.4
2017-10-27T01:30:39.715Z,34.7
2017-10-27T01:40:55.392Z,34.5
2017-10-27T01:51:09.594Z,34
2017-10-27T02:01:23.439Z,33
2017-10-27T02:11:37.647Z,31.6
2017-10-27T02:21:53.314Z,30.9
2017-10-27T02:32:08.735Z,30.5
2017-10-27T02:42:22.468Z,30.6
2017-10-27T02:52:37.196Z,31.1
2017-10-27T03:02:52.220Z,31.4
2017-10-27T03:13:06.562Z,31.6
2017-10-27T03:23:21.464Z,33.1
2017-10-27T03:33:36.722Z,32.7
2017-10-27T03:43:51.414Z,32.3
2017-10-27T03:54:06.444Z,33.4
2017-10-27T04:14:34.421Z,30.6
2017-10-27T04:24:48.388Z,29.3
2017-10-27T04:35:03.372Z,29.3
2017-10-27T04:45:18.424Z,28.9
2017-10-27T04:55:33.955Z,29.3
2017-10-27T05:05:48.581Z,29.7
2017-10-27T05:16:04.242Z,31.1
2017-10-27T05:26:19.582Z,32
2017-10-27T05:36:34.943Z,32.3
2017-10-27T05:46:49.167Z,32.9
2017-10-27T05:57:03.241Z,33.6
2017-10-27T06:07:18.333Z,34
2017-10-27T06:17:32.556Z,34.2
2017-10-27T06:27:47.316Z,34.8
2017-10-27T06:38:01.498Z,34.6
2017-10-27T06:48:15.991Z,34.6
2017-10-27T06:58:30.591Z,36.1
2017-10-27T07:08:45.456Z,37.1
2017-10-27T07:19:00.202Z,40.2
2017-10-27T07:29:14.764Z,41.6
2017-10-27T07:39:29.055Z,44.6
2017-10-27T07:49:43.399Z,46.1
2017-10-27T07:59:59.109Z,48.7
2017-10-27T08:10:14.267Z,48.6
2017-10-27T08:20:28.056Z,48.5
2017-10-27T08:30:43.108Z,54.8
2017-10-27T08:40:57.676Z,80.9
2017-10-27T08:51:12.385Z,89.4
2017-10-27T09:01:27.144Z,92.2
2017-10-27T09:11:42.402Z,90.3
2017-10-27T09:21:56.256Z,97
2017-10-27T09:32:10.097Z,93.6
2017-10-27T09:42:24.144Z,95.1
2017-10-27T09:52:38.593Z,100
2017-10-27T10:02:54.430Z,99.7
2017-10-27T10:13:09.015Z,98.5
2017-10-27T10:23:23.104Z,95.1
2017-10-27T10:33:38.326Z,96.2
2017-10-27T10:43:52.244Z,94.1
2017-10-27T10:54:06.680Z,81.6
2017-10-27T11:04:20.840Z,100
2017-10-27T11:14:35.026Z,100
2017-10-27T11:24:49.991Z,100
2017-10-27T11:35:04.351Z,100
2017-10-27T11:45:19.995Z,100
2017-10-27T11:55:34.709Z,100
2017-10-27T12:05:49.973Z,100
2017-10-27T12:16:05.470Z,100
2017-10-27T12:26:20.395Z,100
2017-10-27T12:36:35.604Z,100
2017-10-27T12:46:50.438Z,99.8
2017-10-27T12:57:06.025Z,93.3
2017-10-27T13:07:21.709Z,78
2017-10-27T13:17:36.618Z,75.3
2017-10-27T13:27:50.711Z,84.7
2017-10-27T13:38:06.425Z,85.6
2017-10-27T13:48:20.572Z,91.4
2017-10-27T13:58:34.404Z,96.8
2017-10-27T14:08:48.875Z,94.1
2017-10-27T14:19:03.997Z,95.4
2017-10-27T14:29:19.472Z,92.5
2017-10-27T14:39:33.802Z,56.6
2017-10-27T14:49:48.815Z,36.9
2017-10-27T15:00:04.275Z,32.4
2017-10-27T15:10:18.290Z,28.8
2017-10-27T15:20:33.373Z,27.6
2017-10-27T15:30:49.028Z,27.8
2017-10-27T15:41:04.077Z,39.1
2017-10-27T15:51:19.182Z,72.5
2017-10-27T16:01:33.849Z,65.1
2017-10-27T16:11:49.375Z,66.9
2017-10-27T16:22:03.142Z,57.1
2017-10-27T16:32:18.451Z,50.6
2017-10-27T16:42:33.822Z,45.7
2017-10-27T16:52:47.758Z,49.9
2017-10-27T17:03:02.843Z,54.9
2017-10-27T17:13:17.248Z,52.8
2017-10-27T17:23:32.143Z,50.6
2017-10-27T17:33:47.400Z,48.5
2017-10-27T17:44:01.121Z,43
2017-10-27T17:54:15.853Z,38.8
2017-10-27T18:04:30.332Z,34.2
2017-10-27T18:14:44.991Z,32
2017-10-27T18:25:00.322Z,31.4
2017-10-27T18:35:14.995Z,29.9
2017-10-27T18:45:29.329Z,28
2017-10-27T18:55:44.637Z,29.3
2017-10-27T19:05:59.579Z,35.1
2017-10-27T19:16:14.009Z,48.5
2017-10-27T19:26:29.362Z,54.3
2017-10-27T19:36:40.169Z,58.3
2017-10-27T19:46:54.581Z,59.7
2017-10-27T19:57:08.362Z,61.7
2017-10-27T20:07:22.723Z,62.1
2017-10-27T20:17:37.585Z,63.8
2017-10-27T20:27:52.302Z,67.9
2017-10-27T20:38:06.403Z,63.8
2017-10-27T20:48:21.761Z,62.2
2017-10-27T20:58:36.399Z,61.5
2017-10-27T21:08:51.179Z,61.4
2017-10-27T21:19:05.722Z,57
2017-10-27T21:29:19.425Z,54.5
2017-10-27T21:39:34.090Z,52.6
2017-10-27T21:49:49.265Z,54.9
2017-10-27T22:00:03.677Z,50.1
2017-10-27T22:10:18.436Z,39.1
2017-10-27T22:20:32.886Z,34.2
2017-10-27T22:30:46.701Z,31.3
2017-10-27T22:41:00.753Z,30.8
2017-10-27T22:51:14.667Z,31.8
2017-10-27T23:01:29.486Z,32.2
2017-10-27T23:11:43.916Z,32.1
2017-10-27T23:21:58.472Z,32.2
2017-10-27T23:32:12.509Z,32.7
2017-10-27T23:42:26.519Z,33.9
2017-10-27T23:52:41.436Z,34.8
